Time;durP1;ratioP1;P1;durP2;ratioP2;P2;SDS_P1;SDS_P2;PMS_P1;PMS_P2;Temp;Humidity;BMP_temperature;BMP_pressure;BME280_temperature;BME280_humidity;BME280_pressure;Samples;Min_cycle;Max_cycle;Signal;HPM_P1;HPM_P2
2022/10/06 00:02:11;;;;;;;8.85;6.78;;;;;;;13.76;68.33;99961.94;5087120;28;20354;-72
2022/10/06 00:04:39;;;;;;;8.70;7.38;;;;;;;13.77;68.39;99969.84;5087304;28;20048;-72
2022/10/06 00:07:05;;;;;;;8.38;6.55;;;;;;;13.66;68.52;99969.59;5087288;28;20063;-72
2022/10/06 00:09:32;;;;;;;7.43;6.13;;;;;;;13.68;68.68;99970.38;5087227;28;20059;-72
2022/10/06 00:11:59;;;;;;;8.45;5.97;;;;;;;13.66;68.20;99985.59;5087158;28;20308;-72
2022/10/06 00:14:26;;;;;;;11.43;6.43;;;;;;;13.66;68.47;99982.06;5087136;28;20060;-72
2022/10/06 00:16:53;;;;;;;8.13;6.43;;;;;;;13.65;68.69;99978.53;5087044;28;20055;-72
2022/10/06 00:19:19;;;;;;;9.18;5.82;;;;;;;13.63;68.66;99980.44;5086777;28;20189;-72
2022/10/06 00:21:47;;;;;;;9.68;7.25;;;;;;;13.60;68.86;99982.41;5086982;28;20049;-72
2022/10/06 00:24:14;;;;;;;15.23;5.78;;;;;;;13.58;69.20;99981.66;5086648;28;20048;-72
2022/10/06 00:26:41;;;;;;;6.97;5.28;;;;;;;13.57;68.63;99993.25;5086884;28;20068;-72
2022/10/06 00:29:08;;;;;;;8.52;5.70;;;;;;;13.56;68.77;99991.53;5086773;28;20086;-72
2022/10/06 00:31:35;;;;;;;8.20;6.68;;;;;;;13.55;69.17;99995.13;5086690;28;20078;-72
2022/10/06 00:34:02;;;;;;;7.47;6.07;;;;;;;13.49;68.85;99993.69;5086632;28;20049;-72
2022/10/06 00:36:28;;;;;;;8.68;4.82;;;;;;;13.50;68.85;99992.75;5086150;28;20327;-72
2022/10/06 00:38:56;;;;;;;5.85;4.95;;;;;;;13.48;68.82;99994.63;5086507;28;20208;-72
2022/10/06 00:41:23;;;;;;;6.15;4.85;;;;;;;13.44;69.03;99990.44;5086258;28;20347;-72
2022/10/06 00:43:52;;;;;;;7.43;5.00;;;;;;;13.45;68.80;99994.81;5086479;28;20048;-72
2022/10/06 00:46:28;;;;;;;8.90;5.55;;;;;;;13.40;69.30;99995.03;5086380;28;20186;-72
2022/10/06 00:49:00;;;;;;;9.00;5.70;;;;;;;13.38;69.03;99996.91;5086594;28;20056;-72
2022/10/06 00:51:29;;;;;;;8.88;5.93;;;;;;;13.35;69.00;99989.09;5085913;28;20331;-72
2022/10/06 00:53:57;;;;;;;7.28;5.28;;;;;;;13.34;69.00;99982.06;5086138;28;20056;-73
2022/10/06 00:56:24;;;;;;;6.13;5.22;;;;;;;12.82;69.40;99909.63;5085704;28;20070;-72
2022/10/06 00:58:51;;;;;;;6.63;4.95;;;;;;;13.28;69.09;99982.41;5086018;28;20044;-72
2022/10/06 01:01:18;;;;;;;8.32;5.70;;;;;;;13.23;69.03;99964.97;5086122;28;20056;-71
2022/10/06 01:03:49;;;;;;;6.85;5.72;;;;;;;13.25;69.14;99973.75;5085720;28;20208;-71
2022/10/06 01:06:16;;;;;;;7.28;6.05;;;;;;;13.16;69.75;99965.31;5085519;28;20067;-72
2022/10/06 01:08:43;;;;;;;9.50;5.65;;;;;;;13.14;69.51;99967.22;5085936;28;20200;-71
2022/10/06 01:11:13;;;;;;;9.40;6.25;;;;;;;13.11;70.05;99979.84;5085902;28;20114;-72
2022/10/06 01:13:42;;;;;;;7.78;6.53;;;;;;;13.06;69.92;99977.44;5085676;28;20346;-72
2022/10/06 01:16:16;;;;;;;8.70;5.88;;;;;;;13.10;70.16;99994.09;5085793;28;20060;-72
2022/10/06 01:18:46;;;;;;;9.23;5.68;;;;;;;13.09;69.70;99987.91;5085694;28;20060;-71
2022/10/06 01:21:20;;;;;;;7.15;5.93;;;;;;;12.98;69.88;99966.34;5085927;28;20060;-71
2022/10/06 01:23:49;;;;;;;9.15;6.63;;;;;;;13.12;69.90;99986.88;5085594;28;20044;-72
2022/10/06 01:26:18;;;;;;;10.60;6.38;;;;;;;12.62;69.23;99913.38;5085566;28;20327;-72
2022/10/06 01:28:45;;;;;;;8.05;5.90;;;;;;;13.08;69.74;99988.00;5085933;28;20048;-72
2022/10/06 01:31:12;;;;;;;7.88;6.30;;;;;;;13.06;69.92;99988.06;5085532;28;20327;-72
2022/10/06 01:33:39;;;;;;;7.30;6.22;;;;;;;13.06;69.80;99988.06;5085833;28;20067;-72
2022/10/06 01:36:06;;;;;;;8.93;6.72;;;;;;;13.06;70.01;99984.56;5085862;28;20084;-72
2022/10/06 01:38:33;;;;;;;8.43;6.80;;;;;;;13.02;69.71;99986.53;5085755;28;20059;-72
2022/10/06 01:41:01;;;;;;;7.60;6.45;;;;;;;13.02;70.15;99996.31;5085822;28;20110;-72
2022/10/06 01:43:27;;;;;;;9.50;7.32;;;;;;;12.97;70.21;99991.25;5085776;28;20059;-72
2022/10/06 01:45:55;;;;;;;9.35;7.10;;;;;;;12.98;70.05;99994.75;5085799;28;20060;-72
2022/10/06 01:48:23;;;;;;;9.60;6.57;;;;;;;12.96;70.13;99999.31;5085752;28;20072;-72
2022/10/06 01:50:50;;;;;;;9.88;6.80;;;;;;;12.15;70.04;99860.97;5085257;28;20044;-72
2022/10/06 01:53:17;;;;;;;7.72;6.45;;;;;;;12.92;70.31;100001.28;5085438;28;20326;-72
2022/10/06 01:55:45;;;;;;;14.52;7.10;;;;;;;12.54;70.21;99944.84;5085282;28;20084;-72
2022/10/06 01:58:13;;;;;;;7.28;6.35;;;;;;;12.91;70.12;99996.91;5085371;28;20072;-72
2022/10/06 02:00:40;;;;;;;8.75;6.15;;;;;;;12.78;70.37;99983.41;5085487;28;20060;-72
2022/10/06 02:03:07;;;;;;;10.18;7.47;;;;;;;12.76;70.54;99984.44;5085525;28;20087;-72
2022/10/06 02:05:34;;;;;;;9.27;6.90;;;;;;;12.86;70.38;99998.94;5085601;28;20044;-72
2022/10/06 02:08:01;;;;;;;9.20;6.65;;;;;;;12.86;70.01;100006.06;5085546;28;20056;-71
2022/10/06 02:10:28;;;;;;;7.93;6.00;;;;;;;12.82;70.25;100008.91;5085552;28;20048;-72
2022/10/06 02:12:56;;;;;;;10.48;6.35;;;;;;;12.76;70.39;100005.72;5085243;28;20053;-72
2022/10/06 02:15:25;;;;;;;9.10;6.47;;;;;;;11.98;70.36;99870.72;5085549;28;20242;-72
2022/10/06 02:17:53;;;;;;;7.63;6.05;;;;;;;12.77;70.43;100007.44;5087841;28;20044;-73
2022/10/06 02:20:19;;;;;;;7.45;5.50;;;;;;;12.76;70.18;100011.03;5089483;28;20083;-72
2022/10/06 02:22:46;;;;;;;8.82;6.30;;;;;;;12.74;70.13;100003.13;5089431;28;20048;-72
2022/10/06 02:25:13;;;;;;;8.10;6.28;;;;;;;12.47;70.29;99957.59;5089381;28;20048;-72
2022/10/06 02:27:39;;;;;;;8.77;6.38;;;;;;;12.67;70.40;100014.19;5089153;28;20274;-72
2022/10/06 02:30:07;;;;;;;8.48;6.45;;;;;;;12.54;70.59;99991.84;5088393;28;20258;-72
2022/10/06 02:32:36;;;;;;;7.70;6.38;;;;;;;12.61;70.48;100010.06;5088507;28;20185;-72
2022/10/06 02:35:05;;;;;;;8.68;6.30;;;;;;;12.19;71.10;99939.59;5088802;28;20048;-72
2022/10/06 02:37:32;;;;;;;7.25;6.05;;;;;;;12.59;70.38;100009.28;5088693;28;20044;-73
2022/10/06 02:39:59;;;;;;;9.80;6.13;;;;;;;12.57;70.46;100002.31;5089016;28;20114;-72
2022/10/06 02:42:25;;;;;;;6.95;5.60;;;;;;;12.56;70.91;100011.22;5088961;28;20059;-72
2022/10/06 02:44:52;;;;;;;8.18;7.35;;;;;;;12.50;70.93;100015.06;5088977;28;20059;-73
2022/10/06 02:47:21;;;;;;;6.80;5.65;;;;;;;12.52;71.08;100013.19;5088672;28;20304;-72
2022/10/06 02:49:49;;;;;;;6.75;5.60;;;;;;;12.51;70.86;100015.00;5089486;28;20220;-72
2022/10/06 02:52:16;;;;;;;8.25;6.20;;;;;;;12.51;71.10;100022.13;5088842;28;20056;-72
2022/10/06 02:54:44;;;;;;;7.70;5.72;;;;;;;12.48;70.79;100017.81;5088568;28;20048;-73
2022/10/06 02:57:11;;;;;;;6.70;5.68;;;;;;;12.41;71.32;100016.41;5088756;28;20059;-72
2022/10/06 02:59:38;;;;;;;9.13;5.68;;;;;;;12.38;71.19;100023.69;5088724;28;20049;-73
2022/10/06 03:02:05;;;;;;;7.38;6.68;;;;;;;12.37;71.35;100028.16;5088672;28;20059;-72
2022/10/06 03:04:31;;;;;;;7.95;6.15;;;;;;;12.40;71.30;100028.00;5088604;28;20048;-72
2022/10/06 03:06:59;;;;;;;7.22;5.82;;;;;;;12.39;70.99;100023.63;5088622;28;20072;-72
2022/10/06 03:09:26;;;;;;;11.38;5.72;;;;;;;12.37;70.76;100030.81;5088578;28;20044;-72
2022/10/06 03:11:53;;;;;;;8.00;6.50;;;;;;;12.36;70.83;100030.88;5088543;28;20059;-72
2022/10/06 03:14:19;;;;;;;8.15;6.63;;;;;;;12.33;71.53;100042.53;5088470;28;20067;-72
2022/10/06 03:16:46;;;;;;;11.65;6.35;;;;;;;12.33;70.79;100039.88;5088412;28;20059;-72
2022/10/06 03:19:13;;;;;;;8.15;5.45;;;;;;;12.31;71.38;100038.25;5088306;28;20055;-72
2022/10/06 03:21:42;;;;;;;10.35;5.80;;;;;;;12.31;71.08;100039.09;5088261;28;20220;-72
2022/10/06 03:24:10;;;;;;;9.57;6.95;;;;;;;12.27;71.23;100047.31;5088252;28;20048;-72
2022/10/06 03:26:39;;;;;;;10.20;6.95;;;;;;;12.26;71.28;100053.56;5088152;28;20056;-71
2022/10/06 03:29:06;;;;;;;9.05;6.75;;;;;;;12.26;71.29;100041.13;5087719;28;20048;-71
2022/10/06 03:31:33;;;;;;;7.28;5.35;;;;;;;12.23;71.47;100045.75;5087868;28;20308;-72
2022/10/06 03:34:00;;;;;;;8.70;6.20;;;;;;;12.15;71.81;100043.44;5088109;28;20048;-72
2022/10/06 03:36:31;;;;;;;13.32;6.85;;;;;;;12.14;71.49;100055.00;5088081;28;20048;-72
2022/10/06 03:38:57;;;;;;;11.93;7.03;;;;;;;12.13;71.52;100054.16;5087638;28;20351;-72
2022/10/06 03:41:27;;;;;;;8.18;6.10;;;;;;;12.16;71.30;100053.13;5087695;28;20311;-72
2022/10/06 03:43:55;;;;;;;13.10;6.75;;;;;;;12.15;71.51;100054.06;5087981;28;20048;-72
2022/10/06 03:46:24;;;;;;;7.70;5.90;;;;;;;12.11;71.29;100056.03;5087620;28;20055;-72
2022/10/06 03:48:51;;;;;;;9.38;5.53;;;;;;;11.71;71.37;99996.03;5087566;28;20045;-72
2022/10/06 03:51:20;;;;;;;8.55;5.68;;;;;;;11.83;71.16;100013.16;5087812;28;20040;-73
2022/10/06 03:53:50;;;;;;;8.88;5.75;;;;;;;11.83;71.12;100027.28;5087774;28;20046;-73
2022/10/06 03:56:18;;;;;;;7.80;5.18;;;;;;;12.01;71.52;100069.84;5087328;28;20063;-72
2022/10/06 03:58:50;;;;;;;7.50;6.13;;;;;;;12.00;71.53;100073.41;5087310;28;20056;-73
2022/10/06 04:01:19;;;;;;;12.63;5.97;;;;;;;12.00;71.62;100061.00;5087324;28;20345;-73
2022/10/06 04:03:46;;;;;;;8.18;6.00;;;;;;;12.00;71.43;100070.75;5087150;28;20059;-71
2022/10/06 04:06:17;;;;;;;6.93;5.95;;;;;;;11.97;71.59;100065.59;5087487;28;20057;-71
2022/10/06 04:08:45;;;;;;;10.73;6.80;;;;;;;11.95;71.53;100064.81;5087441;28;20056;-72
2022/10/06 04:11:13;;;;;;;7.88;6.45;;;;;;;11.93;71.65;100090.59;5087328;28;20064;-72
2022/10/06 04:13:42;;;;;;;7.80;5.70;;;;;;;11.55;71.69;100019.81;5087267;28;20215;-72
2022/10/06 04:16:16;;;;;;;8.15;5.88;;;;;;;11.78;71.55;100055.00;5087340;28;20089;-72
2022/10/06 04:18:43;;;;;;;8.30;6.55;;;;;;;11.85;71.51;100075.03;5087235;28;20048;-72
2022/10/06 04:21:11;;;;;;;7.85;6.55;;;;;;;11.86;71.78;100074.94;5087134;28;20048;-71
2022/10/06 04:23:37;;;;;;;8.95;6.60;;;;;;;11.84;71.68;100081.25;5087080;28;20052;-72
2022/10/06 04:26:08;;;;;;;10.15;6.88;;;;;;;11.86;71.89;100082.06;5087106;28;20063;-71
2022/10/06 04:28:36;;;;;;;9.82;6.20;;;;;;;11.82;72.04;100076.03;5087040;28;20049;-71
2022/10/06 04:31:04;;;;;;;7.88;5.43;;;;;;;11.81;71.94;100078.75;5087060;28;20090;-74
2022/10/06 04:33:33;;;;;;;8.20;5.97;;;;;;;11.52;71.59;100035.91;5086913;28;20061;-72
2022/10/06 04:36:01;;;;;;;7.18;5.72;;;;;;;11.80;71.66;100088.53;5086617;28;20331;-72
2022/10/06 04:38:29;;;;;;;10.20;6.22;;;;;;;11.80;72.16;100082.34;5086702;28;20052;-71
2022/10/06 04:40:56;;;;;;;7.25;5.93;;;;;;;11.77;71.84;100093.97;5085784;28;20177;-71
2022/10/06 04:43:22;;;;;;;8.02;6.07;;;;;;;11.78;71.89;100097.50;5086657;28;20041;-71
2022/10/06 04:45:56;;;;;;;9.00;6.15;;;;;;;11.66;72.04;100076.84;5086672;28;20048;-72
2022/10/06 04:48:23;;;;;;;10.25;6.57;;;;;;;11.77;71.93;100103.75;5086666;28;20067;-71
2022/10/06 04:50:55;;;;;;;7.57;5.57;;;;;;;11.78;71.96;100100.16;5086591;28;20131;-71
2022/10/06 04:53:21;;;;;;;8.27;6.70;;;;;;;11.72;72.27;100101.31;5086518;28;20106;-71
2022/10/06 04:55:49;;;;;;;8.43;6.60;;;;;;;10.65;71.96;99919.78;5086066;28;20056;-72
2022/10/06 04:58:16;;;;;;;7.25;6.50;;;;;;;10.94;72.31;99968.81;5086342;28;20044;-72
2022/10/06 05:00:42;;;;;;;7.78;6.72;;;;;;;11.69;72.08;100098.81;5086094;28;20312;-72
2022/10/06 05:03:09;;;;;;;10.13;6.13;;;;;;;11.70;72.21;100107.63;5086336;28;20056;-72
2022/10/06 05:05:38;;;;;;;9.60;6.20;;;;;;;11.70;72.40;100104.97;5086306;28;20059;-72
2022/10/06 05:08:06;;;;;;;9.68;6.90;;;;;;;11.63;72.29;100112.38;5085469;28;20067;-73
2022/10/06 05:10:33;;;;;;;12.45;7.30;;;;;;;11.64;72.29;100111.44;5086203;28;20048;-72
2022/10/06 05:13:02;;;;;;;7.80;6.95;;;;;;;11.64;72.43;100108.78;5086056;28;20098;-73
2022/10/06 05:15:29;;;;;;;12.18;7.70;;;;;;;10.73;72.48;99960.03;5086130;28;20280;-72
2022/10/06 05:17:55;;;;;;;10.65;7.50;;;;;;;11.63;72.44;100120.34;5085617;28;20102;-73
2022/10/06 05:20:22;;;;;;;12.02;7.13;;;;;;;11.54;73.13;100120.78;5085646;28;20208;-73
2022/10/06 05:22:49;;;;;;;10.05;7.45;;;;;;;11.57;73.04;100118.84;5086025;28;20131;-72
2022/10/06 05:25:18;;;;;;;8.93;6.82;;;;;;;11.61;73.11;100134.63;5085967;28;20056;-72
2022/10/06 05:27:44;;;;;;;8.82;7.88;;;;;;;11.64;73.04;100129.16;5085852;28;20115;-73
2022/10/06 05:30:12;;;;;;;9.07;6.47;;;;;;;11.66;72.74;100127.28;5085916;28;20080;-73
2022/10/06 05:32:39;;;;;;;9.52;7.13;;;;;;;11.50;73.08;100114.75;5085961;28;20067;-73
2022/10/06 05:35:06;;;;;;;10.45;6.97;;;;;;;11.66;73.46;100145.88;5085512;28;20048;-73
2022/10/06 05:37:33;;;;;;;10.73;7.03;;;;;;;11.65;73.36;100142.38;5085790;28;20048;-73
2022/10/06 05:40:00;;;;;;;9.88;6.75;;;;;;;11.62;73.25;100146.97;5085478;28;20307;-73
2022/10/06 05:42:28;;;;;;;9.35;6.90;;;;;;;11.70;73.26;100153.63;5085493;28;20255;-73
2022/10/06 05:44:54;;;;;;;15.98;8.02;;;;;;;11.69;73.67;100149.25;5085775;28;20059;-72
2022/10/06 05:47:21;;;;;;;10.05;7.53;;;;;;;11.72;73.69;100156.22;5085602;28;20067;-73
2022/10/06 05:49:48;;;;;;;9.88;8.00;;;;;;;11.71;73.40;100158.00;5085690;28;20063;-73
2022/10/06 05:52:14;;;;;;;10.30;7.07;;;;;;;11.76;73.53;100169.28;5085474;28;20048;-73
2022/10/06 05:54:41;;;;;;;11.32;7.45;;;;;;;11.79;73.55;100160.31;5085412;28;20068;-73
2022/10/06 05:57:08;;;;;;;12.50;7.30;;;;;;;11.75;73.75;100170.22;5085599;28;20045;-73
2022/10/06 05:59:36;;;;;;;11.77;8.63;;;;;;;11.79;73.81;100165.63;5085493;28;20048;-72
2022/10/06 06:02:02;;;;;;;12.38;7.82;;;;;;;11.83;73.70;100172.50;5085516;28;20052;-73
2022/10/06 06:04:29;;;;;;;9.68;7.55;;;;;;;11.86;74.03;100173.22;5085514;28;20067;-72
2022/10/06 06:06:56;;;;;;;10.20;7.10;;;;;;;11.89;73.67;100175.72;5085553;28;20243;-72
2022/10/06 06:09:22;;;;;;;8.63;7.32;;;;;;;11.94;74.13;100178.16;5085481;28;20052;-72
2022/10/06 06:11:51;;;;;;;12.23;8.88;;;;;;;11.96;73.79;100178.09;5085470;28;20059;-72
2022/10/06 06:15:59;;;;;;;14.57;8.32;;;;;;;11.98;73.95;100189.50;5085494;28;20056;-72
2022/10/06 06:17:06;;;;;;;11.25;7.90;;;;;;;12.00;74.26;100183.22;5085189;28;20060;-72
2022/10/06 06:19:33;;;;;;;9.30;7.20;;;;;;;12.03;73.81;100193.69;5085168;28;20045;-72
2022/10/06 06:22:00;;;;;;;10.85;7.22;;;;;;;11.94;73.41;100172.84;5085303;28;20048;-72
2022/10/06 06:24:26;;;;;;;12.23;7.97;;;;;;;12.10;73.66;100197.78;5085325;28;20057;-72
2022/10/06 06:26:53;;;;;;;13.48;8.43;;;;;;;12.18;73.56;100198.31;5085337;28;20059;-71
2022/10/06 06:29:20;;;;;;;11.18;8.15;;;;;;;12.25;73.09;100200.66;5085267;28;20052;-72
2022/10/06 06:31:47;;;;;;;15.52;9.05;;;;;;;12.29;73.15;100204.91;5084954;28;20090;-72
2022/10/06 06:34:15;;;;;;;15.27;9.32;;;;;;;11.47;73.11;100052.97;5084885;28;20250;-72
2022/10/06 06:36:45;;;;;;;18.58;8.88;;;;;;;12.38;73.07;100207.09;5085181;28;20048;-72
2022/10/06 06:39:14;;;;;;;14.25;7.78;;;;;;;12.46;72.97;100216.44;5085227;28;20048;-72
2022/10/06 06:41:43;;;;;;;18.70;10.23;;;;;;;12.12;72.44;100139.25;5084931;28;20048;-71
2022/10/06 06:44:12;;;;;;;18.83;8.85;;;;;;;12.68;72.20;100218.88;5085126;28;20045;-72
2022/10/06 06:46:42;;;;;;;15.32;9.00;;;;;;;12.77;72.66;100229.06;5085114;28;20048;-72
2022/10/06 06:49:10;;;;;;;16.33;8.75;;;;;;;12.71;72.49;100207.22;5085040;28;20098;-72
2022/10/06 06:51:40;;;;;;;17.67;8.88;;;;;;;12.95;71.82;100226.41;5084831;28;20305;-72
2022/10/06 06:54:08;;;;;;;17.27;9.13;;;;;;;12.82;71.71;100186.25;5085019;28;20048;-72
2022/10/06 06:56:35;;;;;;;13.45;8.20;;;;;;;13.13;71.43;100226.31;5084684;28;20056;-72
2022/10/06 06:59:05;;;;;;;16.25;8.35;;;;;;;12.84;70.78;100155.97;5084873;28;20059;-71
2022/10/06 07:01:32;;;;;;;18.00;8.80;;;;;;;13.33;70.74;100224.41;5084689;28;20300;-71
2022/10/06 07:03:59;;;;;;;16.95;9.02;;;;;;;13.42;71.00;100235.47;5087244;28;20056;-72
2022/10/06 07:06:27;;;;;;;16.40;8.63;;;;;;;13.51;70.49;100230.59;5088610;28;20056;-72
2022/10/06 07:08:56;;;;;;;14.30;8.73;;;;;;;13.61;70.23;100232.69;5088471;28;20053;-72
2022/10/06 07:11:25;;;;;;;13.57;8.65;;;;;;;13.73;69.25;100232.03;5088462;28;20063;-72
2022/10/06 07:13:53;;;;;;;20.90;9.88;;;;;;;13.83;69.43;100235.06;5088090;28;20056;-72
2022/10/06 07:27:23;;;;;;;13.07;8.10;;;;;;;14.63;66.86;100235.00;5088145;28;20053;-72
2022/10/06 07:29:53;;;;;;;12.77;8.95;;;;;;;14.82;65.92;100228.59;5087816;28;20300;-72
2022/10/06 07:32:20;;;;;;;13.30;8.18;;;;;;;15.00;65.83;100230.19;5088156;28;20079;-72
2022/10/06 07:34:46;;;;;;;14.43;7.53;;;;;;;15.16;65.60;100230.13;5087739;28;20059;-72
2022/10/06 07:37:13;;;;;;;11.02;6.85;;;;;;;15.29;65.17;100228.44;5088077;28;20052;-72
2022/10/06 07:39:43;;;;;;;13.40;7.20;;;;;;;15.43;64.89;100227.59;5087693;28;20208;-72
2022/10/06 07:42:11;;;;;;;11.48;8.30;;;;;;;15.46;64.58;100217.56;5087876;28;20048;-72
2022/10/06 07:44:38;;;;;;;12.18;9.55;;;;;;;15.71;64.64;100236.50;5087773;28;20191;-72
2022/10/06 07:47:05;;;;;;;9.80;8.48;;;;;;;15.83;63.98;100229.53;5087637;28;20048;-72
2022/10/06 07:49:32;;;;;;;12.73;8.95;;;;;;;15.98;63.72;100236.59;5087714;28;20211;-72
2022/10/06 07:51:59;;;;;;;14.63;8.02;;;;;;;16.14;63.54;100235.59;5087694;28;20052;-72
2022/10/06 07:54:26;;;;;;;10.02;8.32;;;;;;;16.29;63.90;100230.13;5087862;28;20048;-72
2022/10/06 07:56:55;;;;;;;10.23;6.93;;;;;;;16.47;62.43;100229.88;5087137;28;20071;-72
2022/10/06 07:59:22;;;;;;;12.57;7.10;;;;;;;16.61;61.31;100240.53;5087457;28;20093;-72
2022/10/06 08:01:51;;;;;;;8.68;6.03;;;;;;;16.53;61.85;100216.09;5087395;28;20064;-72
2022/10/06 08:04:17;;;;;;;8.80;6.57;;;;;;;16.87;62.18;100236.16;5087317;28;20048;-72
2022/10/06 08:06:46;;;;;;;6.88;5.18;;;;;;;17.04;61.00;100232.34;5087368;28;20056;-72
2022/10/06 08:09:13;;;;;;;10.63;5.78;;;;;;;17.10;61.24;100232.78;5087385;28;20239;-72
2022/10/06 08:11:39;;;;;;;7.32;3.80;;;;;;;17.16;60.54;100237.72;5087021;28;20216;-72
2022/10/06 08:14:07;;;;;;;6.47;3.92;;;;;;;17.29;61.24;100232.41;5087200;28;20094;-72
2022/10/06 08:16:34;;;;;;;7.55;4.28;;;;;;;17.43;60.96;100245.69;5087080;28;20067;-72
2022/10/06 08:19:01;;;;;;;4.95;3.22;;;;;;;17.52;59.73;100244.19;5086920;28;20086;-72
2022/10/06 08:21:29;;;;;;;6.05;2.88;;;;;;;17.66;59.97;100244.13;5087010;28;20056;-72
2022/10/06 08:23:58;;;;;;;6.25;2.70;;;;;;;17.46;58.73;100191.03;5086714;28;20196;-72
2022/10/06 08:26:27;;;;;;;4.55;2.40;;;;;;;17.92;58.74;100248.50;5086759;28;20296;-73
2022/10/06 08:29:01;;;;;;;3.10;2.15;;;;;;;17.95;58.43;100232.19;5086835;28;20044;-72
2022/10/06 08:31:30;;;;;;;;;;;;;;;18.03;55.93;100255.78;5087029;28;20048;-72
2022/10/06 08:33:57;;;;;;;4.05;2.67;;;;;;;18.10;57.30;100257.03;5086759;28;19924;-73
2022/10/06 08:36:26;;;;;;;4.95;2.83;;;;;;;18.22;57.28;100258.84;5086744;28;20189;-72
2022/10/06 08:38:53;;;;;;;4.28;2.40;;;;;;;18.28;57.04;100255.72;5086460;28;20063;-73
2022/10/06 08:41:23;;;;;;;3.60;2.50;;;;;;;18.41;56.42;100249.44;5086237;28;20308;-73
2022/10/06 08:43:58;;;;;;;3.00;2.22;;;;;;;18.53;56.76;100252.13;5086509;28;20048;-73
2022/10/06 08:46:25;;;;;;;;;;;;;;;18.54;55.18;100256.50;5087120;28;20115;-73
2022/10/06 08:48:53;;;;;;;6.82;2.63;;;;;;;18.72;56.21;100243.53;5086161;28;19916;-72
2022/10/06 08:51:34;;;;;;;4.45;2.72;;;;;;;18.90;54.16;100242.16;5086088;28;20052;-72
2022/10/06 08:54:08;;;;;;;4.32;2.13;;;;;;;19.01;54.59;100240.50;5086436;28;20056;-72
2022/10/06 08:56:47;;;;;;;3.77;2.40;;;;;;;19.10;54.34;100251.38;5085775;28;20113;-73
2022/10/06 08:59:16;;;;;;;4.38;2.60;;;;;;;19.07;54.16;100226.59;5086022;28;20506;-73
2022/10/06 09:01:46;;;;;;;5.90;2.75;;;;;;;19.35;52.88;100254.88;5085627;28;20350;-73
2022/10/06 09:04:25;;;;;;;4.68;2.22;;;;;;;19.37;51.53;100255.63;5085941;28;20111;-73
2022/10/06 09:07:02;;;;;;;6.43;2.75;;;;;;;19.41;52.20;100260.66;5085741;28;20288;-72
2022/10/06 09:09:46;;;;;;;4.20;2.20;;;;;;;19.46;51.36;100255.78;5086121;28;20044;-72
2022/10/06 09:12:19;;;;;;;4.25;2.13;;;;;;;19.54;52.94;100256.06;5085603;28;20244;-72
2022/10/06 09:14:51;;;;;;;2.60;2.00;;;;;;;19.58;53.16;100269.25;5085778;28;20374;-71
2022/10/06 09:17:23;;;;;;;2.63;1.90;;;;;;;17.78;53.41;99942.97;5086330;28;20056;-72
2022/10/06 09:19:58;;;;;;;4.25;2.08;;;;;;;19.78;51.54;100263.16;5085926;28;20052;-72
2022/10/06 09:22:28;;;;;;;3.47;1.90;;;;;;;19.84;52.93;100263.56;5085873;28;20056;-72
2022/10/06 09:24:59;;;;;;;6.35;2.55;;;;;;;20.02;52.61;100263.09;5085549;28;20207;-72
2022/10/06 09:27:31;;;;;;;5.90;2.58;;;;;;;20.13;51.66;100263.06;5085559;28;20052;-72
2022/10/06 09:29:58;;;;;;;5.10;2.42;;;;;;;20.13;51.99;100261.25;5085608;28;20252;-73
2022/10/06 09:32:28;;;;;;;5.15;2.50;;;;;;;20.17;51.47;100267.22;5085646;28;20216;-73
2022/10/06 09:34:58;;;;;;;3.90;2.58;;;;;;;20.27;52.51;100265.53;5086297;28;20068;-72
2022/10/06 09:37:27;;;;;;;5.13;2.85;;;;;;;20.37;52.05;100265.66;5085702;28;20119;-73
2022/10/06 09:39:54;;;;;;;3.03;2.10;;;;;;;20.41;51.63;100259.88;5085202;28;20304;-73
2022/10/06 09:42:24;;;;;;;5.93;2.83;;;;;;;20.55;52.05;100263.28;5085591;28;20062;-72
2022/10/06 09:45:00;;;;;;;5.30;2.75;;;;;;;20.61;50.56;100266.31;5085658;28;20101;-72
2022/10/06 09:47:39;;;;;;;3.90;2.30;;;;;;;20.60;49.84;100267.31;5085205;28;20270;-72
2022/10/06 09:50:20;;;;;;;4.18;2.55;;;;;;;20.67;49.89;100264.97;5085214;28;20080;-72
2022/10/06 09:53:10;;;;;;;5.65;3.05;;;;;;;20.77;49.17;100277.53;5085517;28;20056;-72
2022/10/06 09:55:50;;;;;;;4.45;2.25;;;;;;;20.90;49.31;100272.00;5085120;28;20048;-72
2022/10/06 09:58:22;;;;;;;6.10;3.40;;;;;;;20.97;50.00;100269.63;5085531;28;20048;-72
2022/10/06 10:00:53;;;;;;;5.88;2.50;;;;;;;21.01;49.35;100274.63;5085420;28;20112;-73
2022/10/06 10:03:20;;;;;;;4.78;2.22;;;;;;;21.08;50.92;100275.00;5085461;28;20062;-72
2022/10/06 10:05:53;;;;;;;3.60;2.35;;;;;;;21.11;49.87;100270.22;5085259;28;20055;-73
2022/10/06 10:08:22;;;;;;;17.88;2.97;;;;;;;21.23;51.01;100271.00;5085385;28;20090;-72
2022/10/06 10:10:50;;;;;;;4.90;2.20;;;;;;;21.36;49.63;100274.38;5085280;28;20045;-73
2022/10/06 10:13:20;;;;;;;3.80;2.17;;;;;;;21.40;48.70;100277.66;5085378;28;20048;-73
2022/10/06 10:15:55;;;;;;;4.20;2.20;;;;;;;21.43;48.08;100280.94;5085196;28;20075;-73
2022/10/06 10:18:27;;;;;;;11.18;2.53;;;;;;;21.15;50.08;100230.38;5085156;28;20075;-73
2022/10/06 10:20:58;;;;;;;4.70;2.55;;;;;;;21.56;49.13;100279.91;5085234;28;20116;-74
2022/10/06 10:23:29;;;;;;;3.90;2.30;;;;;;;21.63;48.58;100281.94;5085143;28;20056;-73
2022/10/06 10:26:25;;;;;;;3.13;2.28;;;;;;;21.73;47.92;100287.38;5085250;28;20111;-73
2022/10/06 10:29:29;;;;;;;3.20;2.08;;;;;;;21.30;48.23;100212.88;5085133;28;20052;-73
2022/10/06 10:32:11;;;;;;;3.58;2.17;;;;;;;21.76;48.01;100284.41;5069674;28;20060;-73
2022/10/06 10:35:00;;;;;;;3.72;2.38;;;;;;;21.82;47.90;100292.00;5085019;28;20115;-74
2022/10/06 10:37:35;;;;;;;4.10;2.30;;;;;;;21.88;47.77;100296.00;5084900;28;20274;-73
2022/10/06 10:40:06;;;;;;;4.05;2.22;;;;;;;21.95;48.63;100292.66;5088759;28;20121;-73
2022/10/06 10:42:39;;;;;;;5.28;2.60;;;;;;;22.03;48.31;100287.44;5088978;28;20056;-73
2022/10/06 10:45:15;;;;;;;5.03;3.03;;;;;;;21.86;47.90;100244.03;5088809;28;20068;-73
2022/10/06 10:47:44;;;;;;;5.45;2.30;;;;;;;22.19;48.74;100283.38;5088891;28;20045;-73
2022/10/06 10:50:23;;;;;;;3.83;2.30;;;;;;;22.28;47.44;100279.84;5088795;28;20044;-73
2022/10/06 10:52:56;;;;;;;3.78;2.38;;;;;;;22.37;47.26;100284.44;5088622;28;20101;-73
2022/10/06 10:55:28;;;;;;;3.40;1.83;;;;;;;21.83;46.87;100204.69;5088473;28;20079;-73
2022/10/06 10:58:01;;;;;;;4.57;2.20;;;;;;;21.57;47.74;100161.09;5088662;28;20102;-73
2022/10/06 11:00:34;;;;;;;3.97;2.03;;;;;;;22.29;48.02;100284.25;5088586;28;20056;-73
2022/10/06 11:03:01;;;;;;;3.42;2.10;;;;;;;22.31;47.98;100282.28;5088328;28;20347;-73
2022/10/06 11:05:45;;;;;;;3.38;2.28;;;;;;;22.31;46.81;100283.13;5088617;28;20063;-74
2022/10/06 11:08:17;;;;;;;;;;;;;;;22.20;47.29;100280.53;5088993;28;20048;-73
2022/10/06 11:10:49;;;;;;;5.00;2.08;;;;;;;22.01;48.42;100221.06;5088120;28;19956;-73
2022/10/06 11:13:25;;;;;;;5.32;2.90;;;;;;;22.53;47.78;100265.03;5088523;28;20055;-73
2022/10/06 11:16:09;;;;;;;7.03;2.92;;;;;;;22.20;46.93;100207.63;5088058;28;20054;-74
2022/10/06 11:19:01;;;;;;;4.90;4.00;;;;;;;22.68;46.71;100269.91;5088438;28;20090;-73
2022/10/06 11:21:35;;;;;;;5.35;3.33;;;;;;;22.73;47.60;100272.19;5088083;28;20049;-73
2022/10/06 11:24:14;;;;;;;4.30;2.90;;;;;;;22.73;47.21;100275.75;5088225;28;20207;-73
2022/10/06 11:26:53;;;;;;;5.50;3.08;;;;;;;22.68;46.76;100269.06;5087903;28;20048;-73
2022/10/06 11:29:31;;;;;;;10.10;7.88;;;;;;;22.68;46.82;100274.47;5088127;28;20204;-73
2022/10/06 11:32:12;;;;;;;7.35;4.78;;;;;;;22.69;46.73;100268.06;5087897;28;20055;-73
2022/10/06 11:34:40;;;;;;;5.22;3.55;;;;;;;22.77;48.70;100267.38;5087675;28;20044;-73
2022/10/06 11:37:21;;;;;;;4.13;3.08;;;;;;;22.76;46.63;100271.06;5088074;28;20049;-73
2022/10/06 11:39:58;;;;;;;4.18;2.15;;;;;;;22.55;45.80;100250.41;5087870;28;20045;-73
2022/10/06 11:42:34;;;;;;;3.63;2.10;;;;;;;22.75;46.33;100272.06;5087811;28;20056;-73
2022/10/06 11:45:04;;;;;;;3.20;2.22;;;;;;;22.71;46.67;100274.19;5087674;28;20320;-73
2022/10/06 11:47:34;;;;;;;4.63;2.13;;;;;;;21.03;46.72;99988.88;5087807;28;20117;-73